Time;durP1;ratioP1;P1;durP2;ratioP2;P2;SDS_P1;SDS_P2;PMS_P1;PMS_P2;Temp;Humidity;BMP_temperature;BMP_pressure;BME280_temperature;BME280_humidity;BME280_pressure;Samples;Min_cycle;Max_cycle;Signal;HPM_P1;HPM_P2
2021/05/13 00:01:59;;;;;;;19.77;10.97;;;;;;;12.30;100.00;99825.59;5061881;28;20283;-75
2021/05/13 00:04:25;;;;;;;18.70;11.07;;;;;;;12.30;100.00;99828.22;5066483;28;20198;-75
2021/05/13 00:06:51;;;;;;;17.33;10.20;;;;;;;12.30;100.00;99836.06;5065073;28;20285;-74
2021/05/13 00:09:17;;;;;;;19.27;11.13;;;;;;;12.30;100.00;99832.63;5069129;28;20322;-75
2021/05/13 00:11:46;;;;;;;16.63;10.07;;;;;;;12.32;100.00;99836.84;5065001;28;20231;-74
2021/05/13 00:14:15;;;;;;;17.33;10.33;;;;;;;12.35;100.00;99850.69;5066732;28;20775;-75
2021/05/13 00:16:43;;;;;;;16.53;10.37;;;;;;;12.34;100.00;99838.53;5062478;28;20204;-75
2021/05/13 00:19:12;;;;;;;14.87;10.23;;;;;;;12.36;100.00;99839.31;5065220;28;20320;-74
2021/05/13 00:21:40;;;;;;;17.30;10.30;;;;;;;12.37;100.00;99841.03;5063889;28;20549;-75
2021/05/13 00:24:10;;;;;;;16.67;9.90;;;;;;;12.37;100.00;99839.25;5069137;28;20243;-75
2021/05/13 00:26:37;;;;;;;14.83;9.90;;;;;;;12.39;100.00;99826.13;5063434;28;20215;-75
2021/05/13 00:29:05;;;;;;;17.73;10.40;;;;;;;12.40;100.00;99827.78;5064742;28;20218;-75
2021/05/13 00:31:31;;;;;;;17.77;10.90;;;;;;;12.36;100.00;99821.03;5065918;28;20266;-74
2021/05/13 00:34:00;;;;;;;17.57;10.37;;;;;;;12.38;100.00;99821.78;5058386;28;20201;-75
2021/05/13 00:36:27;;;;;;;14.40;9.30;;;;;;;12.38;100.00;99821.78;5061844;28;20590;-75
2021/05/13 00:38:54;;;;;;;17.17;10.50;;;;;;;12.38;100.00;99824.41;5066998;28;20287;-75
2021/05/13 00:41:21;;;;;;;14.67;9.93;;;;;;;12.37;100.00;99817.50;5061553;28;20210;-75
2021/05/13 00:43:48;;;;;;;17.70;10.37;;;;;;;12.35;100.00;99809.72;5062736;28;20219;-75
2021/05/13 00:46:15;;;;;;;14.70;9.03;;;;;;;12.34;100.00;99810.63;5063008;28;20577;-74
2021/05/13 00:48:46;;;;;;;14.67;8.83;;;;;;;12.31;100.00;99801.19;5061442;28;20199;-75
2021/05/13 00:51:14;;;;;;;13.93;8.87;;;;;;;12.30;100.00;99790.78;5062727;28;20310;-74
2021/05/13 00:53:45;;;;;;;15.90;9.30;;;;;;;12.29;100.00;99774.28;5062188;28;20212;-74
2021/05/13 00:56:14;;;;;;;14.13;9.40;;;;;;;12.29;100.00;99766.44;5055950;28;20207;-74
2021/05/13 00:58:44;;;;;;;16.70;9.47;;;;;;;12.26;100.00;99757.84;5063027;28;20421;-74
2021/05/13 01:01:14;;;;;;;15.77;9.17;;;;;;;12.27;100.00;99759.56;5062194;28;20218;-75
2021/05/13 01:03:41;;;;;;;16.10;9.80;;;;;;;12.24;100.00;99751.84;5064061;28;20205;-75
2021/05/13 01:06:10;;;;;;;14.23;9.53;;;;;;;12.22;100.00;99749.31;5063144;28;20201;-75
2021/05/13 01:08:38;;;;;;;15.57;9.67;;;;;;;12.24;100.00;99764.94;5050573;28;20195;-75
2021/05/13 01:11:07;;;;;;;15.70;8.87;;;;;;;12.23;100.00;99771.94;5060824;28;20228;-75
2021/05/13 01:13:36;;;;;;;13.70;8.90;;;;;;;12.22;100.00;99767.59;5060378;28;20235;-74
2021/05/13 01:16:11;;;;;;;16.87;9.20;;;;;;;12.22;100.00;99775.44;5061078;28;20233;-74
2021/05/13 01:18:37;;;;;;;14.47;9.23;;;;;;;12.19;100.00;99772.13;5066244;28;20232;-75
2021/05/13 01:21:04;;;;;;;13.10;8.83;;;;;;;12.21;100.00;99760.72;5068631;28;20312;-75
2021/05/13 01:23:30;;;;;;;13.83;9.57;;;;;;;12.18;100.00;99755.63;5066107;28;20194;-75
2021/05/13 01:25:57;;;;;;;16.27;9.40;;;;;;;12.19;100.00;99756.44;5062572;28;20856;-75
2021/05/13 01:28:25;;;;;;;18.90;10.20;;;;;;;12.14;100.00;99746.22;5064066;28;20204;-73
2021/05/13 01:30:52;;;;;;;15.97;9.73;;;;;;;12.16;100.00;99743.56;5063877;28;20224;-74
2021/05/13 01:33:19;;;;;;;14.57;9.27;;;;;;;12.13;100.00;99745.38;5063031;28;20215;-75
2021/05/13 01:35:46;;;;;;;15.87;9.53;;;;;;;12.17;100.00;99745.22;5064163;28;20195;-75
2021/05/13 01:38:14;;;;;;;13.50;9.53;;;;;;;12.17;100.00;99750.44;5058014;28;20224;-75
2021/05/13 01:40:49;;;;;;;12.53;9.47;;;;;;;12.12;100.00;99738.47;5064015;28;20222;-75
2021/05/13 01:43:15;;;;;;;13.43;9.83;;;;;;;12.09;100.00;99741.22;5067295;28;20206;-75
2021/05/13 01:45:42;;;;;;;12.37;9.40;;;;;;;12.02;100.00;99731.97;5057390;28;20552;-75
2021/05/13 01:48:08;;;;;;;14.00;9.77;;;;;;;12.00;100.00;99733.81;5062259;28;20283;-75
2021/05/13 01:50:35;;;;;;;15.50;9.43;;;;;;;12.01;100.00;99734.63;5064648;28;20584;-75
2021/05/13 01:53:04;;;;;;;14.77;9.53;;;;;;;11.99;100.00;99736.47;5063517;28;20210;-75
2021/05/13 01:55:31;;;;;;;12.00;8.70;;;;;;;11.98;100.00;99734.78;5063556;28;20292;-75
2021/05/13 01:57:58;;;;;;;13.57;8.83;;;;;;;11.96;100.00;99731.41;5060497;28;20218;-74
2021/05/13 02:00:24;;;;;;;13.07;8.10;;;;;;;11.93;100.00;99728.00;5063714;28;20198;-75
2021/05/13 02:02:50;;;;;;;12.60;8.80;;;;;;;11.92;100.00;99728.06;5063473;28;20203;-74
2021/05/13 02:05:17;;;;;;;16.07;9.43;;;;;;;11.89;100.00;99731.66;5059796;28;20249;-75
2021/05/13 02:07:44;;;;;;;13.43;9.10;;;;;;;11.86;100.00;99729.19;5061002;28;20267;-75
2021/05/13 02:10:11;;;;;;;15.07;9.40;;;;;;;11.85;100.00;99722.25;5064851;28;20202;-75
2021/05/13 02:12:37;;;;;;;14.40;8.77;;;;;;;11.87;100.00;99720.44;5059454;28;20203;-75
2021/05/13 02:15:07;;;;;;;17.03;9.20;;;;;;;11.83;100.00;99718.88;5059126;28;20283;-75
2021/05/13 02:17:33;;;;;;;15.80;9.53;;;;;;;11.83;100.00;99712.81;5061739;28;20208;-75
2021/05/13 02:19:59;;;;;;;13.83;8.97;;;;;;;11.79;100.00;99719.94;5064476;28;20698;-75
2021/05/13 02:22:25;;;;;;;13.67;9.63;;;;;;;11.78;100.00;99715.63;5045882;28;20236;-74
2021/05/13 02:24:51;;;;;;;11.83;8.97;;;;;;;11.73;100.00;99715.84;5065289;28;20583;-75
2021/05/13 02:27:17;;;;;;;15.93;9.77;;;;;;;11.70;100.00;99718.59;5065597;28;20277;-74
2021/05/13 02:29:43;;;;;;;14.83;9.40;;;;;;;11.68;100.00;99715.19;5061465;28;20242;-75
2021/05/13 02:32:10;;;;;;;13.27;9.00;;;;;;;11.64;100.00;99718.00;5060056;28;20258;-75
2021/05/13 02:34:36;;;;;;;12.67;8.50;;;;;;;11.64;100.00;99723.22;5063703;28;20203;-75
2021/05/13 02:37:02;;;;;;;13.17;9.27;;;;;;;11.60;100.00;99726.91;5059915;28;20286;-74
2021/05/13 02:39:28;;;;;;;12.33;8.63;;;;;;;11.58;100.00;99728.75;5065638;28;20207;-75
2021/05/13 02:41:54;;;;;;;10.87;8.53;;;;;;;11.58;100.00;99724.34;5063126;28;20246;-75
2021/05/13 02:44:20;;;;;;;12.17;9.63;;;;;;;11.51;100.00;99726.38;5067287;28;20241;-74
2021/05/13 02:46:46;;;;;;;14.40;9.43;;;;;;;11.51;100.00;99720.31;5061755;28;20200;-75
2021/05/13 02:49:13;;;;;;;12.00;8.80;;;;;;;11.50;100.00;99719.50;5063551;28;20199;-75
2021/05/13 02:51:39;;;;;;;13.47;9.23;;;;;;;11.45;100.00;99713.63;5056281;28;20214;-75
2021/05/13 02:54:05;;;;;;;13.67;9.00;;;;;;;11.46;100.00;99709.25;5063065;28;20539;-75
2021/05/13 02:56:31;;;;;;;14.43;8.87;;;;;;;11.45;100.00;99716.22;5061157;28;20211;-75
2021/05/13 02:58:57;;;;;;;13.17;8.67;;;;;;;11.46;100.00;99712.69;5065959;28;20214;-74
2021/05/13 03:01:25;;;;;;;13.47;9.50;;;;;;;11.41;100.00;99709.44;5066033;28;20222;-74
2021/05/13 03:03:51;;;;;;;15.60;8.93;;;;;;;11.37;100.00;99716.53;5055493;28;20695;-75
2021/05/13 03:06:19;;;;;;;18.10;9.77;;;;;;;11.33;100.00;99699.34;5061477;28;20226;-74
2021/05/13 03:08:46;;;;;;;12.27;8.30;;;;;;;11.28;100.00;99693.47;5064242;28;20201;-73
2021/05/13 03:11:13;;;;;;;12.10;8.43;;;;;;;11.31;100.00;99689.88;5065965;28;20211;-74
2021/05/13 03:13:39;;;;;;;10.23;8.60;;;;;;;11.27;100.00;99683.09;5065376;28;20202;-74
2021/05/13 03:16:05;;;;;;;11.17;9.07;;;;;;;11.25;100.00;99685.78;5064181;28;20230;-74
2021/05/13 03:18:33;;;;;;;11.90;8.90;;;;;;;11.20;100.00;99682.50;5064851;28;20594;-74
2021/05/13 03:21:04;;;;;;;16.37;9.87;;;;;;;11.14;100.00;99681.03;5070559;28;20225;-74
2021/05/13 03:23:38;;;;;;;11.33;8.57;;;;;;;11.13;100.00;99675.88;5068207;28;20209;-74
2021/05/13 03:26:04;;;;;;;13.90;9.40;;;;;;;11.09;100.00;99675.16;5067825;28;20207;-75
2021/05/13 03:28:30;;;;;;;11.83;9.33;;;;;;;11.07;100.00;99674.38;5070563;28;20202;-74
2021/05/13 03:30:57;;;;;;;14.67;10.07;;;;;;;11.05;100.00;99677.97;5068336;28;20279;-74
2021/05/13 03:33:23;;;;;;;11.77;9.83;;;;;;;11.03;100.00;99671.97;5066058;28;20203;-74
2021/05/13 03:35:49;;;;;;;13.17;10.07;;;;;;;11.04;100.00;99669.28;5064861;28;20223;-75
2021/05/13 03:38:16;;;;;;;14.83;9.53;;;;;;;11.04;100.00;99671.91;5064435;28;20211;-74
2021/05/13 03:40:43;;;;;;;13.60;10.40;;;;;;;10.98;100.00;99670.41;5062676;28;20272;-74
2021/05/13 03:43:09;;;;;;;13.23;10.60;;;;;;;10.91;100.00;99660.31;5066006;28;20758;-74
2021/05/13 03:45:36;;;;;;;17.00;9.97;;;;;;;10.92;100.00;99649.81;5063171;28;20731;-74
2021/05/13 03:48:03;;;;;;;13.60;9.77;;;;;;;10.88;100.00;99644.78;5066119;28;20206;-74
2021/05/13 03:50:30;;;;;;;12.40;8.87;;;;;;;10.84;100.00;99653.66;5058721;28;20229;-74
2021/05/13 03:52:56;;;;;;;12.50;9.03;;;;;;;10.84;100.00;99651.06;5066460;28;20234;-74
2021/05/13 03:55:22;;;;;;;11.10;8.40;;;;;;;10.80;100.00;99650.34;5064833;28;20663;-73
2021/05/13 03:57:50;;;;;;;12.50;8.37;;;;;;;10.77;100.00;99643.47;5063765;28;20218;-74
2021/05/13 04:00:19;;;;;;;13.97;9.47;;;;;;;10.78;100.00;99642.59;5068310;28;20206;-74
2021/05/13 04:02:45;;;;;;;12.90;8.47;;;;;;;10.75;100.00;99647.91;5060795;28;20205;-74
2021/05/13 04:05:12;;;;;;;17.40;8.40;;;;;;;10.72;100.00;99640.22;5066290;28;20211;-74
2021/05/13 04:07:39;;;;;;;14.67;9.57;;;;;;;10.72;100.00;99647.22;5061986;28;20206;-74
2021/05/13 04:10:08;;;;;;;10.77;8.37;;;;;;;10.71;100.00;99638.53;5079103;28;20267;-74
2021/05/13 04:12:36;;;;;;;12.73;8.23;;;;;;;10.76;100.00;99646.16;5063223;28;20214;-74
2021/05/13 04:15:04;;;;;;;12.37;8.37;;;;;;;10.77;100.00;99647.88;5060032;28;20240;-73
2021/05/13 04:17:30;;;;;;;14.40;9.43;;;;;;;10.72;100.00;99648.03;5065011;28;20582;-74
2021/05/13 04:19:56;;;;;;;12.73;8.87;;;;;;;10.74;100.00;99648.81;5065837;28;20283;-74
2021/05/13 04:22:22;;;;;;;14.80;9.20;;;;;;;10.75;100.00;99655.75;5066249;28;20269;-74
2021/05/13 04:24:48;;;;;;;13.77;8.90;;;;;;;10.77;100.00;99655.69;5065651;28;20203;-74
2021/05/13 04:27:14;;;;;;;15.13;9.20;;;;;;;10.76;100.00;99657.44;5064457;28;20596;-74
2021/05/13 04:29:40;;;;;;;14.20;9.80;;;;;;;10.75;100.00;99654.91;5071223;28;20230;-73
2021/05/13 04:32:07;;;;;;;13.03;8.93;;;;;;;10.76;100.00;99648.75;5066166;28;20222;-74
2021/05/13 04:34:33;;;;;;;16.57;9.73;;;;;;;10.78;100.00;99655.63;5068645;28;20652;-74
2021/05/13 04:36:59;;;;;;;16.90;9.93;;;;;;;10.79;100.00;99654.69;5064741;28;20233;-74
2021/05/13 04:39:25;;;;;;;12.90;9.10;;;;;;;10.80;100.00;99650.34;5073992;28;20290;-74
2021/05/13 04:41:51;;;;;;;13.53;9.70;;;;;;;10.82;100.00;99660.69;5063728;28;20246;-74
2021/05/13 04:44:17;;;;;;;14.67;9.30;;;;;;;10.80;100.00;99659.00;5071236;28;20232;-74
2021/05/13 04:46:44;;;;;;;14.63;9.07;;;;;;;10.78;100.00;99653.00;5067203;28;20256;-74
2021/05/13 04:49:17;;;;;;;13.20;9.37;;;;;;;10.83;100.00;99655.41;5066968;28;20214;-74
2021/05/13 04:51:46;;;;;;;14.47;9.43;;;;;;;10.82;100.00;99655.47;5067172;28;20241;-74
2021/05/13 04:54:13;;;;;;;18.97;10.07;;;;;;;10.83;100.00;99652.81;5070640;28;20267;-74
2021/05/13 04:56:40;;;;;;;14.77;9.30;;;;;;;10.84;100.00;99657.13;5061956;28;20194;-75
2021/05/13 04:59:06;;;;;;;18.17;9.67;;;;;;;10.85;100.00;99657.94;5058382;28;20222;-74
2021/05/13 05:01:32;;;;;;;14.07;10.00;;;;;;;10.83;100.00;99654.56;5065722;28;20257;-74
2021/05/13 05:03:58;;;;;;;15.57;9.70;;;;;;;10.83;100.00;99651.97;5063955;28;20687;-74
2021/05/13 05:06:25;;;;;;;14.57;10.10;;;;;;;10.83;100.00;99652.81;5066503;28;20691;-74
2021/05/13 05:08:51;;;;;;;15.00;9.70;;;;;;;10.79;100.00;99654.69;5060122;28;20223;-74
2021/05/13 05:11:19;;;;;;;15.87;9.60;;;;;;;10.83;100.00;99651.97;5046005;28;20235;-75
2021/05/13 05:13:45;;;;;;;16.00;9.77;;;;;;;10.84;100.00;99648.47;5064090;28;20613;-74
2021/05/13 05:16:11;;;;;;;16.43;9.87;;;;;;;10.82;100.00;99653.72;5063716;28;20206;-73
2021/05/13 05:18:37;;;;;;;16.53;10.73;;;;;;;10.83;100.00;99641.53;5061174;28;20311;-74
2021/05/13 05:21:04;;;;;;;15.10;9.57;;;;;;;10.82;100.00;99643.31;5063071;28;20249;-74
2021/05/13 05:23:30;;;;;;;14.27;9.80;;;;;;;10.83;100.00;99636.31;5064492;28;20198;-74
2021/05/13 05:25:57;;;;;;;18.53;10.83;;;;;;;10.79;100.00;99638.22;5064600;28;20260;-73
2021/05/13 05:28:23;;;;;;;17.90;10.77;;;;;;;10.83;100.00;99639.75;5069797;28;20222;-74
2021/05/13 05:30:49;;;;;;;17.63;10.10;;;;;;;10.85;100.00;99637.09;5066141;28;20223;-74
2021/05/13 05:33:16;;;;;;;16.17;10.40;;;;;;;10.82;100.00;99647.66;5069173;28;20570;-75
2021/05/13 05:35:42;;;;;;;23.10;10.33;;;;;;;10.80;100.00;99639.91;5064664;28;20349;-74
2021/05/13 05:38:09;;;;;;;15.80;10.97;;;;;;;10.82;100.00;99638.09;5066000;28;20213;-74
2021/05/13 05:40:36;;;;;;;17.10;10.60;;;;;;;10.84;100.00;99638.88;5066687;28;20303;-74
2021/05/13 05:43:03;;;;;;;18.67;10.97;;;;;;;10.86;100.00;99633.59;5060254;28;21298;-74
2021/05/13 05:45:30;;;;;;;18.13;10.53;;;;;;;10.84;100.00;99632.81;5062650;28;20199;-73
2021/05/13 05:47:59;;;;;;;18.33;11.13;;;;;;;10.85;100.00;99629.28;5063275;28;20571;-74
2021/05/13 05:50:27;;;;;;;17.03;10.27;;;;;;;10.92;100.00;99635.91;5059590;28;20206;-74
2021/05/13 05:52:53;;;;;;;19.27;10.93;;;;;;;10.88;100.00;99640.41;5061793;28;20211;-74
2021/05/13 05:55:19;;;;;;;17.47;10.60;;;;;;;10.87;100.00;99646.56;5063643;28;20203;-74
2021/05/13 05:57:46;;;;;;;18.37;11.27;;;;;;;10.91;100.00;99640.28;5065132;28;20210;-74
2021/05/13 06:00:13;;;;;;;20.60;11.17;;;;;;;10.90;100.00;99643.81;5061403;28;20273;-74
2021/05/13 06:02:39;;;;;;;17.10;10.67;;;;;;;10.93;100.00;99646.28;5063662;28;20194;-74
2021/05/13 06:05:06;;;;;;;18.37;10.67;;;;;;;10.95;100.00;99649.66;5064428;28;20382;-74
2021/05/13 06:07:33;;;;;;;21.30;11.43;;;;;;;10.95;100.00;99646.22;5059543;28;20195;-74
2021/05/13 06:09:59;;;;;;;19.87;11.67;;;;;;;10.95;100.00;99656.66;5065902;28;20756;-74
2021/05/13 06:12:25;;;;;;;15.97;10.13;;;;;;;10.95;100.00;99654.03;5063005;28;20226;-74
2021/05/13 06:14:52;;;;;;;19.70;10.03;;;;;;;10.91;100.00;99655.09;5058905;28;20308;-74
2021/05/13 06:17:18;;;;;;;17.47;10.13;;;;;;;10.91;100.00;99652.50;5064549;28;20209;-74
2021/05/13 06:19:44;;;;;;;16.97;9.93;;;;;;;10.86;100.00;99644.84;5062340;28;20198;-74
2021/05/13 06:22:10;;;;;;;16.10;9.53;;;;;;;10.88;100.00;99650.00;5064099;28;20621;-75
2021/05/13 06:24:36;;;;;;;16.33;9.43;;;;;;;10.87;100.00;99643.09;5061389;28;20293;-74
2021/05/13 06:27:05;;;;;;;19.10;10.10;;;;;;;10.85;100.00;99642.31;5068345;28;20236;-74
2021/05/13 06:29:32;;;;;;;15.73;9.00;;;;;;;10.87;100.00;99646.56;5063320;28;20209;-74
2021/05/13 06:31:59;;;;;;;16.67;9.43;;;;;;;10.87;100.00;99643.97;5065930;28;20231;-74
2021/05/13 06:34:28;;;;;;;13.87;9.03;;;;;;;10.87;100.00;99650.91;5065013;28;20252;-74
2021/05/13 06:36:54;;;;;;;13.93;8.10;;;;;;;10.86;100.00;99641.41;5056894;28;20286;-74
2021/05/13 06:39:20;;;;;;;14.87;9.20;;;;;;;10.84;100.00;99651.06;5065162;28;20226;-74
2021/05/13 06:41:46;;;;;;;15.63;8.80;;;;;;;10.84;100.00;99654.50;5064855;28;20222;-74
2021/05/13 06:44:12;;;;;;;13.93;8.80;;;;;;;10.82;100.00;99651.13;5059347;28;20214;-73
2021/05/13 06:46:38;;;;;;;15.67;8.27;;;;;;;10.85;100.00;99653.56;5065348;28;20199;-74
2021/05/13 06:49:05;;;;;;;20.13;7.83;;;;;;;10.85;100.00;99661.41;5062459;28;20203;-74
2021/05/13 06:51:31;;;;;;;12.93;7.53;;;;;;;10.86;100.00;99657.06;5065606;28;20230;-74
2021/05/13 06:53:57;;;;;;;11.10;7.23;;;;;;;10.89;100.00;99655.16;5061943;28;22085;-74
2021/05/13 06:56:23;;;;;;;12.93;7.10;;;;;;;10.88;100.00;99653.44;5061041;28;20286;-74
2021/05/13 06:58:50;;;;;;;10.33;6.70;;;;;;;10.86;100.00;99655.28;5058719;28;20210;-74
2021/05/13 07:01:16;;;;;;;12.87;7.60;;;;;;;10.86;100.00;99644.84;5064057;28;20230;-74
2021/05/13 07:03:42;;;;;;;12.83;6.50;;;;;;;10.90;100.00;99648.19;5063559;28;20200;-74
2021/05/13 07:06:09;;;;;;;12.30;7.00;;;;;;;10.88;100.00;99639.56;5055435;28;20280;-74
2021/05/13 07:08:35;;;;;;;9.63;6.13;;;;;;;10.85;100.00;99645.75;5063876;28;20704;-74
2021/05/13 07:11:04;;;;;;;10.53;6.33;;;;;;;10.87;100.00;99643.09;5075800;28;20750;-74
2021/05/13 07:13:30;;;;;;;12.57;6.40;;;;;;;10.86;100.00;99642.25;5062194;28;20198;-74
2021/05/13 07:15:56;;;;;;;9.33;6.13;;;;;;;10.86;100.00;99644.00;5061616;28;20209;-74
2021/05/13 07:18:23;;;;;;;8.67;5.90;;;;;;;10.84;100.00;99646.69;5063939;28;20768;-73
2021/05/13 07:20:49;;;;;;;8.57;5.60;;;;;;;10.86;100.00;99639.63;5058346;28;20453;-74
2021/05/13 07:23:16;;;;;;;9.47;6.37;;;;;;;10.82;100.00;99632.88;5065976;28;20675;-74
2021/05/13 07:25:42;;;;;;;9.27;5.50;;;;;;;10.83;100.00;99625.88;5065692;28;20217;-74
2021/05/13 07:28:08;;;;;;;7.30;4.83;;;;;;;10.78;100.00;99620.84;5063042;28;20637;-74
2021/05/13 07:30:35;;;;;;;9.20;5.60;;;;;;;10.75;100.00;99605.38;5059116;28;20222;-74
2021/05/13 07:33:01;;;;;;;8.47;5.70;;;;;;;10.78;100.00;99607.81;5064040;28;20660;-74
2021/05/13 07:35:27;;;;;;;9.03;5.73;;;;;;;10.79;100.00;99620.78;5062353;28;20198;-74
2021/05/13 07:37:53;;;;;;;8.10;5.70;;;;;;;10.81;100.00;99620.72;5065760;28;20222;-74
2021/05/13 07:40:22;;;;;;;9.23;5.27;;;;;;;10.88;100.00;99616.94;5061648;28;20194;-74
2021/05/13 07:42:48;;;;;;;9.97;5.97;;;;;;;10.87;100.00;99614.41;5063005;28;20315;-74
2021/05/13 07:45:16;;;;;;;10.17;5.97;;;;;;;10.92;100.00;99617.66;5059220;28;20229;-74
2021/05/13 07:47:44;;;;;;;8.40;5.90;;;;;;;10.90;100.00;99617.72;5064530;28;20197;-74
2021/05/13 07:50:12;;;;;;;8.73;5.97;;;;;;;10.94;100.00;99611.47;5054861;28;20210;-74
2021/05/13 07:52:39;;;;;;;9.47;5.77;;;;;;;10.87;100.00;99609.19;5062610;28;20579;-74
2021/05/13 07:55:07;;;;;;;7.73;5.67;;;;;;;10.94;100.00;99611.47;5061946;28;20202;-74
2021/05/13 07:57:34;;;;;;;8.03;5.60;;;;;;;10.85;100.00;99624.91;5063162;28;20261;-74
2021/05/13 08:00:00;;;;;;;10.83;6.10;;;;;;;10.85;100.00;99624.91;5055724;28;20211;-74
2021/05/13 08:02:27;;;;;;;8.13;5.73;;;;;;;10.84;100.00;99623.22;5063981;28;20726;-73
2021/05/13 08:04:53;;;;;;;13.27;8.30;;;;;;;10.83;100.00;99613.69;5061215;28;20211;-74
2021/05/13 08:07:20;;;;;;;9.13;5.63;;;;;;;10.88;100.00;99611.72;5066345;28;20278;-73
2021/05/13 08:09:47;;;;;;;7.80;5.33;;;;;;;10.88;100.00;99610.91;5072269;28;20225;-74
2021/05/13 08:12:13;;;;;;;9.77;5.33;;;;;;;10.86;100.00;99607.50;5069007;28;20301;-73
2021/05/13 08:14:40;;;;;;;9.17;5.13;;;;;;;10.89;100.00;99608.22;5065727;28;20301;-74
2021/05/13 08:17:06;;;;;;;9.37;5.67;;;;;;;10.86;100.00;99600.53;5067036;28;20240;-74
2021/05/13 08:19:32;;;;;;;8.17;5.33;;;;;;;10.93;100.00;99599.34;5065890;28;20218;-74
2021/05/13 08:21:58;;;;;;;9.33;5.40;;;;;;;10.95;100.00;99597.50;5064341;28;20230;-74
2021/05/13 08:24:24;;;;;;;8.17;5.17;;;;;;;11.06;100.00;99599.63;5061985;28;20213;-74
2021/05/13 08:26:51;;;;;;;8.30;4.77;;;;;;;11.11;100.00;99589.84;5066589;28;20210;-74
2021/05/13 08:29:17;;;;;;;11.33;6.20;;;;;;;11.15;100.00;99594.03;5064015;28;20278;-74
2021/05/13 08:31:44;;;;;;;8.47;5.67;;;;;;;11.17;100.00;99593.97;5064147;28;20226;-74
2021/05/13 08:34:10;;;;;;;9.07;5.67;;;;;;;11.21;100.00;99594.69;5063691;28;20253;-74
2021/05/13 08:36:36;;;;;;;9.10;6.00;;;;;;;11.17;100.00;99600.03;5065501;28;20555;-74
2021/05/13 08:39:03;;;;;;;9.90;5.90;;;;;;;11.23;100.00;99598.06;5061751;28;20214;-74
2021/05/13 08:41:29;;;;;;;7.47;5.43;;;;;;;11.34;100.00;99606.22;5066805;28;20219;-74
2021/05/13 08:43:55;;;;;;;8.03;4.90;;;;;;;11.25;100.00;99604.03;5062266;28;20214;-74
2021/05/13 08:46:21;;;;;;;10.07;5.47;;;;;;;11.21;100.00;99605.09;5062337;28;20301;-74
2021/05/13 08:48:51;;;;;;;12.47;6.50;;;;;;;11.11;100.00;99602.88;5063113;28;20347;-74
2021/05/13 08:51:18;;;;;;;11.33;5.97;;;;;;;11.18;100.00;99606.91;5072244;28;20302;-74
2021/05/13 08:53:53;;;;;;;11.70;6.23;;;;;;;11.12;100.00;99612.41;5061252;28;20260;-74
2021/05/13 08:56:19;;;;;;;9.63;6.10;;;;;;;11.08;100.00;99618.69;5064960;28;20544;-74
2021/05/13 08:58:45;;;;;;;10.20;6.23;;;;;;;11.06;100.00;99612.69;5073019;28;20230;-74
2021/05/13 09:01:16;;;;;;;10.60;5.90;;;;;;;11.05;100.00;99613.59;5060049;28;20299;-74
2021/05/13 09:03:42;;;;;;;11.77;5.87;;;;;;;11.08;100.00;99618.69;5064377;28;20210;-74
2021/05/13 09:06:20;;;;;;;9.43;5.53;;;;;;;11.10;100.00;99622.09;5068328;28;20813;-74
2021/05/13 09:08:46;;;;;;;8.47;5.90;;;;;;;11.09;100.00;99624.75;5063881;28;20243;-74
2021/05/13 09:11:17;;;;;;;7.63;5.43;;;;;;;11.11;100.00;99621.16;5067918;28;20289;-74
2021/05/13 09:13:45;;;;;;;9.00;5.17;;;;;;;11.07;100.00;99617.00;5062432;28;20536;-73
2021/05/13 09:16:44;;;;;;;9.63;5.37;;;;;;;11.07;100.00;99603.13;5061617;28;20559;-74
2021/05/13 09:19:20;;;;;;;6.23;4.80;;;;;;;11.10;100.00;99608.16;4981134;28;20668;-75
2021/05/13 09:21:56;;;;;;;6.83;4.43;;;;;;;11.14;100.00;99604.53;5046488;28;20902;-74
2021/05/13 09:24:42;;;;;;;6.20;4.60;;;;;;;11.14;100.00;99613.19;5069701;28;20186;-74
2021/05/13 09:27:18;;;;;;;10.33;5.13;;;;;;;11.11;100.00;99613.31;5063716;28;20253;-74
2021/05/13 09:29:44;;;;;;;7.43;4.33;;;;;;;11.09;100.00;99616.94;5064044;28;20245;-73
2021/05/13 09:32:15;;;;;;;7.80;5.10;;;;;;;11.06;100.00;99615.28;5062356;28;20222;-74
2021/05/13 09:34:42;;;;;;;9.60;5.50;;;;;;;11.09;100.00;99617.75;5067309;28;20198;-74
2021/05/13 09:37:12;;;;;;;9.87;5.20;;;;;;;11.13;100.00;99621.97;5066030;28;20248;-75
2021/05/13 09:39:46;;;;;;;7.77;5.50;;;;;;;11.12;100.00;99622.03;5076669;28;20223;-74
2021/05/13 09:42:12;;;;;;;8.27;5.33;;;;;;;11.12;100.00;99622.03;5057951;28;20342;-74
2021/05/13 09:44:40;;;;;;;8.17;5.70;;;;;;;11.13;100.00;99627.16;5057469;28;20775;-74
2021/05/13 09:47:20;;;;;;;8.93;6.20;;;;;;;11.04;100.00;99627.56;5061839;28;20206;-74
2021/05/13 09:49:57;;;;;;;6.93;5.07;;;;;;;11.07;100.00;99631.81;5066180;28;20206;-74
2021/05/13 09:52:46;;;;;;;7.70;5.67;;;;;;;11.05;100.00;99641.47;5060810;28;20691;-74
2021/05/13 09:55:15;;;;;;;11.33;5.50;;;;;;;11.08;100.00;99642.19;5056779;28;20316;-74
2021/05/13 09:57:47;;;;;;;8.53;6.10;;;;;;;11.12;100.00;99638.50;5063452;28;20283;-73
2021/05/13 10:00:31;;;;;;;6.80;5.13;;;;;;;11.07;100.00;99639.63;5059856;28;20199;-73
2021/05/13 10:02:58;;;;;;;7.60;5.57;;;;;;;11.09;100.00;99633.41;5062060;28;20243;-74
2021/05/13 10:05:24;;;;;;;6.47;5.20;;;;;;;11.07;100.00;99624.81;5064087;28;20203;-74
2021/05/13 10:07:52;;;;;;;8.33;5.10;;;;;;;11.04;100.00;99619.72;5066442;28;20191;-74
2021/05/13 10:10:18;;;;;;;8.00;5.80;;;;;;;11.06;100.00;99610.06;5063453;28;20827;-74
2021/05/13 10:12:46;;;;;;;6.13;4.77;;;;;;;11.10;100.00;99610.78;5063777;28;20206;-74
2021/05/13 10:15:14;;;;;;;9.43;6.03;;;;;;;11.12;100.00;99603.75;5058649;28;20199;-74
2021/05/13 10:17:43;;;;;;;7.30;5.70;;;;;;;11.08;100.00;99604.78;5058791;28;20309;-74
2021/05/13 10:20:11;;;;;;;7.10;5.50;;;;;;;11.02;100.00;99600.69;5062152;28;20209;-73
2021/05/13 10:22:37;;;;;;;7.07;5.50;;;;;;;11.02;100.00;99603.31;5061822;28;20292;-74
2021/05/13 10:25:20;;;;;;;9.83;5.40;;;;;;;10.93;100.00;99603.72;5065124;28;20202;-74
2021/05/13 10:27:51;;;;;;;7.20;5.23;;;;;;;10.91;100.00;99593.34;5063845;28;20606;-74
2021/05/13 10:30:21;;;;;;;8.07;5.67;;;;;;;10.99;100.00;99593.88;5062729;28;20210;-73
2021/05/13 10:33:07;;;;;;;7.33;4.90;;;;;;;10.95;100.00;99584.47;5061956;28;20193;-73
2021/05/13 10:35:34;;;;;;;7.27;5.03;;;;;;;10.96;100.00;99577.50;5055568;28;20210;-74
2021/05/13 10:38:05;;;;;;;6.60;5.20;;;;;;;10.98;100.00;99573.06;5063460;28;20350;-74
2021/05/13 10:40:44;;;;;;;6.17;4.60;;;;;;;11.01;100.00;99577.28;5061225;28;20259;-74
2021/05/13 10:43:11;;;;;;;9.60;6.13;;;;;;;11.05;100.00;99574.47;5063050;28;20255;-74
2021/05/13 10:45:43;;;;;;;7.73;5.00;;;;;;;11.03;100.00;99572.84;5060597;28;20199;-74
2021/05/13 10:48:20;;;;;;;10.10;4.70;;;;;;;11.02;100.00;99569.41;5063473;28;20202;-74
2021/05/13 10:50:50;;;;;;;5.90;4.33;;;;;;;11.04;100.00;99571.94;5063729;28;20221;-74
2021/05/13 10:53:49;;;;;;;6.57;4.80;;;;;;;11.03;100.00;99563.28;5062739;28;20203;-74
2021/05/13 10:56:19;;;;;;;6.00;4.27;;;;;;;11.04;100.00;99561.50;5063684;28;20190;-74
2021/05/13 10:59:15;;;;;;;9.03;5.23;;;;;;;11.08;100.00;99550.88;5061617;28;20654;-74
2021/05/13 11:01:47;;;;;;;5.40;3.60;;;;;;;10.98;100.00;99558.25;5059292;28;20610;-73
2021/05/13 11:04:35;;;;;;;6.67;4.03;;;;;;;11.04;100.00;99549.31;5063548;28;20458;-74
2021/05/13 11:07:04;;;;;;;5.07;4.53;;;;;;;11.10;100.00;99551.66;5061150;28;20297;-74
2021/05/13 11:09:50;;;;;;;4.93;4.23;;;;;;;11.07;100.00;99563.97;5057428;28;20285;-74
2021/05/13 11:12:19;;;;;;;4.40;3.17;;;;;;;11.04;100.00;99549.31;5046155;28;20305;-74
2021/05/13 11:15:11;;;;;;;3.43;3.10;;;;;;;11.12;100.00;99543.75;5062112;28;20195;-74
2021/05/13 11:20:55;;;;;;;3.40;2.70;;;;;;;11.06;100.00;99547.47;5069152;28;20219;-74
2021/05/13 11:23:24;;;;;;;3.77;2.40;;;;;;;11.10;100.00;99540.34;5063822;28;20289;-75
2021/05/13 11:25:53;;;;;;;2.30;2.10;;;;;;;11.04;100.00;99551.91;5061612;28;20279;-75
2021/05/13 11:28:30;;;;;;;2.40;2.20;;;;;;;10.96;100.00;99560.09;5059638;28;20194;-73